Portada
METAR-TAF:

METAR-TAF

Aeropuertos :

Aeropuerto de Limoges

Limoges, Francia

latitud: 45-52N, longitud: 001-11E, altitud: 396 m

Observación

El informe se hizo hace 30 minutos, a las 17:00 UTC
Viento 7 kt del sur-sureste, variando entre este-sureste y sur
Temperatura 17°C
Humedad 63%
Presión 1022 hPa
Visibilidad 10 km o más
sin nubes por debajo de 1500 m y sin presencia de cumulonimbus.

METAR: LFBL 191700Z AUTO 15007KT 120V190 CAVOK 17/10 Q1022 NOSIG

Hora: 19:30 (17:30 UTC)

Pronóstico

El informe se hizo hace 6 horas y 30 minutos, a las 11:00 UTC
Pronóstico válido del 19 a las 12 UTC al 20 a las 12 UTC
Viento 10 kt del sur-sureste
Visibilidad 10 km o más
sin nubes por debajo de 1500 m y sin presencia de cumulonimbus.
Temporalmente
del 20 a las 09 UTC al 20 a las 12 UTC
Viento 15 kt del sur-suroeste con ráfagas de 25 kt

TAF: LFBL 191100Z 1912/2012 16010KT CAVOK TEMPO 2009/2012 20015G25KT

Observaciones y pronósticos meteorológicos de más de 4000 aeropuertos (mensajes METAR y TAF).

Los puntos amarillos y rojos representan las estaciones disponibles.

Ponga el ratón en el punto deseado para ver el nombre de la estación.

Haga clic para ver las observaciones y los pronósticos meteorológicos.

Para cambiar el mapa : haga clic en los botones verdes con una cruz de color negro para hacer un zoom, en el botón verde con un guión para alejar o en las flechas verdes para mapas adyacentes.


METAR-TAF: